Historyczne dane pomiarowe

Dodano dane terminowe – wersja testowa.

Dane z okresu 1951-2019

Wersja bazy: 1.34 [2019-03-16, lista zmian], aktualizacja planowana na 2019-04-15

Dane meteo z obszaru Polski uzyskane na podstawie danych udostępnionych przez Instytut Meteorologii i Gospodarki Wodnej – Państwowy Instytut Badawczy.

 

Wybierz Datę:    

       

TemperaturaWilgotnośćZachmurzenieWiatrCiśnienieWidzialnośćZjawiska
 Data    tng td wb rh cc ccl cl cm ch dir g1 g2 mslp ppp      
1999-07-16 00:00:00 12.6--- 12.1 12.397wxwxwxwx3wx--1011.3 989.1 0.0---wxw1
1999-07-16 01:00:00 12.1--- 11.4 11.795wxwxwxwx1wx--1011.7 989.5----wx
1999-07-16 02:00:00 12.0--- 11.6 11.898wxwxwxwx2wx--1012.2 989.9----wx
1999-07-16 03:00:00 11.2--- 10.8 11.098wxwxwxwx2wx--1012.5 990.2----wx
1999-07-16 04:00:00 12.9--- 12.6 12.798wxwxwxwx2wx--1012.5 990.3----wx
1999-07-16 05:00:00 14.4--- 13.7 14.096wxwxwxwx3wx--1012.6 990.5----wx
1999-07-16 06:00:00 16.0--- 14.2 14.989wxwxwx3wx--1013.0 991.0 0.0---wx
1999-07-16 07:00:00 17.2--- 13.6 15.079wxwxwx5wx--1013.2 991.3----wx
1999-07-16 08:00:00 17.3--- 13.1 14.877wxwxwx3wx--1013.5 991.6----wx
1999-07-16 09:00:00 15.2--- 13.5 14.290wxwxwx5wx--1014.4 992.3----wx
1999-07-16 10:00:00 16.8--- 13.8 15.083wxwxwx4wx--1014.4 992.5----wxw1
1999-07-16 11:00:00 18.4--- 13.1 15.271wxwxwx3wx--1014.5 992.7----wxw1
1999-07-16 12:00:00 17.6--- 11.8 14.269wxwxwx5wx--1014.9 993.0 1.3---wxw1
1999-07-16 13:00:00 18.6--- 10.2 13.858wxwxwx5wx--1014.8 993.0----wx
1999-07-16 14:00:00 20.0--- 10.7 14.655wxwxwx6wx--1014.8 993.1----wx
1999-07-16 15:00:00 19.8--- 11.7 15.060wxwxwx6wx--1014.8 993.1----wx
1999-07-16 16:00:00 19.0--- 11.1 14.460wxwxwx5wx--1015.1 993.3----wx
1999-07-16 17:00:00 17.0--- 10.7 13.467wxwxwx4wx--1016.1 994.1----wx
1999-07-16 18:00:00 17.0--- 12.6 14.475wxwxwx3wx--1016.6 994.6 0.0---wx
1999-07-16 19:00:00 14.8--- 12.6 13.587wxwxwx5wx--1017.3 995.1----wx
1999-07-16 20:00:00 13.8--- 11.4 12.485wxwxwx2wx--1017.4 995.2----wx
1999-07-16 21:00:00 13.6--- 11.5 12.487wxwxwx0wx--1017.7 995.4----wx
1999-07-16 22:00:00 13.2--- 11.4 12.289wxwxwx2wx--1018.0 995.7----wx
1999-07-16 23:00:00 12.7--- 10.9 11.789wxwxwx2wx--1018.2 995.9----wx

 

Źródłem pochodzenia danych jest Instytut Meteorologii i Gospodarki Wodnej – Państwowy Instytut Badawczy. Dane Instytutu Meteorologii i Gospodarki Wodnej – Państwowego Instytutu Badawczego zostały przetworzone.

Dane źródłowe można odnaleźć na stronie https://dane.imgw.pl